sensor_id;sensor_type;location;lat;lon;timestamp;pressure;altitude;pressure_sealevel;temperature;humidity
78313;BME280;67568;47.438;21.408;2023-03-21T00:00:27;100480.91;;;7.62;72.04
78313;BME280;67568;47.438;21.408;2023-03-21T00:02:54;100481.72;;;7.62;72.71
78313;BME280;67568;47.438;21.408;2023-03-21T00:05:21;100480.06;;;7.66;71.80
78313;BME280;67568;47.438;21.408;2023-03-21T00:07:48;100478.44;;;7.60;71.66
78313;BME280;67568;47.438;21.408;2023-03-21T00:10:14;100477.88;;;7.53;72.38
78313;BME280;67568;47.438;21.408;2023-03-21T00:12:55;100482.31;;;7.44;73.45
78313;BME280;67568;47.438;21.408;2023-03-21T00:15:21;100482.06;;;7.40;72.80
78313;BME280;67568;47.438;21.408;2023-03-21T00:17:56;100483.69;;;7.47;71.11
78313;BME280;67568;47.438;21.408;2023-03-21T00:20:23;100481.19;;;7.45;71.69
78313;BME280;67568;47.438;21.408;2023-03-21T00:22:49;100471.81;;;7.51;71.94
78313;BME280;67568;47.438;21.408;2023-03-21T00:25:16;100479.56;;;7.49;72.15
78313;BME280;67568;47.438;21.408;2023-03-21T00:27:42;100479.31;;;7.35;72.84
78313;BME280;67568;47.438;21.408;2023-03-21T00:30:29;100468.00;;;7.32;73.43
78313;BME280;67568;47.438;21.408;2023-03-21T00:32:56;100470.72;;;7.37;72.37
78313;BME280;67568;47.438;21.408;2023-03-21T00:35:26;100468.00;;;7.32;73.15
78313;BME280;67568;47.438;21.408;2023-03-21T00:38:14;100468.84;;;7.32;74.06
78313;BME280;67568;47.438;21.408;2023-03-21T00:40:40;100464.97;;;7.38;73.76
78313;BME280;67568;47.438;21.408;2023-03-21T00:43:15;100455.06;;;7.37;72.67
78313;BME280;67568;47.438;21.408;2023-03-21T00:45:43;100463.59;;;7.41;72.74
78313;BME280;67568;47.438;21.408;2023-03-21T00:48:11;100460.25;;;7.49;73.25
78313;BME280;67568;47.438;21.408;2023-03-21T00:50:38;100463.03;;;7.49;73.00
78313;BME280;67568;47.438;21.408;2023-03-21T00:53:05;100462.41;;;7.62;73.98
78313;BME280;67568;47.438;21.408;2023-03-21T00:55:32;100457.47;;;7.59;73.64
78313;BME280;67568;47.438;21.408;2023-03-21T00:57:59;100463.47;;;7.77;72.65
78313;BME280;67568;47.438;21.408;2023-03-21T01:00:28;100463.19;;;7.83;72.56
78313;BME280;67568;47.438;21.408;2023-03-21T01:02:55;100460.19;;;7.80;73.50
78313;BME280;67568;47.438;21.408;2023-03-21T01:05:38;100464.03;;;7.79;73.47
78313;BME280;67568;47.438;21.408;2023-03-21T01:08:05;100465.13;;;7.83;71.62
78313;BME280;67568;47.438;21.408;2023-03-21T01:10:50;100460.19;;;7.75;73.44
78313;BME280;67568;47.438;21.408;2023-03-21T01:13:18;100462.41;;;7.68;74.38
78313;BME280;67568;47.438;21.408;2023-03-21T01:15:52;100459.63;;;7.78;72.96
78313;BME280;67568;47.438;21.408;2023-03-21T01:18:24;100456.28;;;7.86;73.69
78313;BME280;67568;47.438;21.408;2023-03-21T01:20:52;100460.69;;;7.92;72.42
78313;BME280;67568;47.438;21.408;2023-03-21T01:23:19;100452.97;;;7.94;70.81
78313;BME280;67568;47.438;21.408;2023-03-21T01:25:47;100450.72;;;7.96;72.19
78313;BME280;67568;47.438;21.408;2023-03-21T01:28:15;100441.63;;;7.96;71.62
78313;BME280;67568;47.438;21.408;2023-03-21T01:30:46;100440.25;;;7.93;72.14
78313;BME280;67568;47.438;21.408;2023-03-21T01:33:13;100428.41;;;7.93;72.12
78313;BME280;67568;47.438;21.408;2023-03-21T01:35:40;100425.09;;;7.91;71.63
78313;BME280;67568;47.438;21.408;2023-03-21T01:38:20;100424.34;;;7.75;72.65
78313;BME280;67568;47.438;21.408;2023-03-21T01:40:48;100423.03;;;7.52;74.41
78313;BME280;67568;47.438;21.408;2023-03-21T01:43:33;100414.72;;;7.62;73.55
78313;BME280;67568;47.438;21.408;2023-03-21T01:49:00;100426.59;;;7.57;74.30
78313;BME280;67568;47.438;21.408;2023-03-21T01:51:29;100419.16;;;7.63;73.92
78313;BME280;67568;47.438;21.408;2023-03-21T01:53:57;100429.38;;;7.52;73.26
78313;BME280;67568;47.438;21.408;2023-03-21T01:56:30;100426.34;;;7.49;73.58
78313;BME280;67568;47.438;21.408;2023-03-21T01:59:04;100429.13;;;7.49;73.49
78313;BME280;67568;47.438;21.408;2023-03-21T02:01:33;100423.03;;;7.52;73.12
78313;BME280;67568;47.438;21.408;2023-03-21T02:04:00;100428.81;;;7.55;73.04
78313;BME280;67568;47.438;21.408;2023-03-21T02:06:33;100428.81;;;7.55;73.58
78313;BME280;67568;47.438;21.408;2023-03-21T02:09:07;100436.56;;;7.43;72.65
78313;BME280;67568;47.438;21.408;2023-03-21T02:11:36;100427.50;;;7.37;73.87
78313;BME280;67568;47.438;21.408;2023-03-21T02:14:03;100426.13;;;7.19;73.87
78313;BME280;67568;47.438;21.408;2023-03-21T02:19:42;100429.72;;;6.99;75.09
78313;BME280;67568;47.438;21.408;2023-03-21T02:28:15;100438.84;;;6.95;74.23
78313;BME280;67568;47.438;21.408;2023-03-21T02:31:21;100440.47;;;6.96;74.12
78313;BME280;67568;47.438;21.408;2023-03-21T02:45:30;100434.13;;;6.70;75.30
78313;BME280;67568;47.438;21.408;2023-03-21T02:48:03;100436.34;;;6.78;74.98
78313;BME280;67568;47.438;21.408;2023-03-21T02:53:04;100425.31;;;6.52;77.34
78313;BME280;67568;47.438;21.408;2023-03-21T02:55:33;100433.28;;;6.59;76.74
78313;BME280;67568;47.438;21.408;2023-03-21T02:58:05;100427.25;;;6.52;76.57
78313;BME280;67568;47.438;21.408;2023-03-21T03:00:39;100431.63;;;6.53;76.36
78313;BME280;67568;47.438;21.408;2023-03-21T03:03:05;100433.59;;;6.58;76.59
78313;BME280;67568;47.438;21.408;2023-03-21T03:05:44;100431.38;;;6.70;76.53
78313;BME280;67568;47.438;21.408;2023-03-21T03:11:30;100433.84;;;6.71;77.14
78313;BME280;67568;47.438;21.408;2023-03-21T03:17:25;100424.47;;;6.57;75.58
78313;BME280;67568;47.438;21.408;2023-03-21T03:25:25;100426.94;;;6.48;77.05
78313;BME280;67568;47.438;21.408;2023-03-21T03:28:08;100425.56;;;6.51;76.46
78313;BME280;67568;47.438;21.408;2023-03-21T03:30:37;100420.88;;;6.51;76.56
78313;BME280;67568;47.438;21.408;2023-03-21T03:33:16;100423.38;;;6.53;76.83
78313;BME280;67568;47.438;21.408;2023-03-21T03:35:45;100428.59;;;6.60;76.00
78313;BME280;67568;47.438;21.408;2023-03-21T03:38:25;100428.59;;;6.60;77.07
78313;BME280;67568;47.438;21.408;2023-03-21T03:40:58;100437.16;;;6.58;75.89
78313;BME280;67568;47.438;21.408;2023-03-21T03:43:39;100444.84;;;6.51;76.39
78313;BME280;67568;47.438;21.408;2023-03-21T03:46:15;100436.59;;;6.51;77.31
78313;BME280;67568;47.438;21.408;2023-03-21T03:49:04;100440.44;;;6.60;75.84
78313;BME280;67568;47.438;21.408;2023-03-21T03:51:49;100437.72;;;6.55;76.82
78313;BME280;67568;47.438;21.408;2023-03-21T03:54:35;100433.84;;;6.51;76.72
78313;BME280;67568;47.438;21.408;2023-03-21T03:57:03;100438.25;;;6.52;76.34
78313;BME280;67568;47.438;21.408;2023-03-21T03:59:34;100426.13;;;6.48;76.45
78313;BME280;67568;47.438;21.408;2023-03-21T04:02:01;100437.94;;;6.48;76.13
78313;BME280;67568;47.438;21.408;2023-03-21T04:04:27;100437.16;;;6.58;75.72
78313;BME280;67568;47.438;21.408;2023-03-21T04:06:55;100431.38;;;6.55;76.35
78313;BME280;67568;47.438;21.408;2023-03-21T04:09:24;100436.31;;;6.47;75.87
78313;BME280;67568;47.438;21.408;2023-03-21T04:12:08;100435.50;;;6.57;75.74
78313;BME280;67568;47.438;21.408;2023-03-21T04:14:35;100425.59;;;6.61;76.01
78313;BME280;67568;47.438;21.408;2023-03-21T04:17:10;100427.53;;;6.61;75.60
78313;BME280;67568;47.438;21.408;2023-03-21T04:19:36;100431.66;;;6.58;75.69
78313;BME280;67568;47.438;21.408;2023-03-21T04:22:03;100439.63;;;6.60;75.47
78313;BME280;67568;47.438;21.408;2023-03-21T04:24:30;100432.72;;;6.57;75.83
78313;BME280;67568;47.438;21.408;2023-03-21T04:26:56;100441.28;;;6.61;75.12
78313;BME280;67568;47.438;21.408;2023-03-21T04:29:23;100444.56;;;6.63;76.58
78313;BME280;67568;47.438;21.408;2023-03-21T04:31:49;100449.56;;;6.61;76.24
78313;BME280;67568;47.438;21.408;2023-03-21T04:34:16;100450.63;;;6.60;76.20
78313;BME280;67568;47.438;21.408;2023-03-21T04:36:43;100452.00;;;6.62;76.74
78313;BME280;67568;47.438;21.408;2023-03-21T04:39:09;100458.91;;;6.65;76.27
78313;BME280;67568;47.438;21.408;2023-03-21T04:41:37;100451.47;;;6.60;75.65
78313;BME280;67568;47.438;21.408;2023-03-21T04:44:04;100445.69;;;6.57;77.00
78313;BME280;67568;47.438;21.408;2023-03-21T04:46:31;100452.84;;;6.58;76.50
78313;BME280;67568;47.438;21.408;2023-03-21T04:48:58;100456.97;;;6.60;76.52
78313;BME280;67568;47.438;21.408;2023-03-21T04:51:25;100447.63;;;6.66;76.58
78313;BME280;67568;47.438;21.408;2023-03-21T04:53:51;100441.53;;;6.54;77.78
78313;BME280;67568;47.438;21.408;2023-03-21T04:56:18;100443.22;;;6.55;76.69
78313;BME280;67568;47.438;21.408;2023-03-21T04:58:44;100437.44;;;6.72;75.96
78313;BME280;67568;47.438;21.408;2023-03-21T05:01:11;100437.97;;;6.74;76.46
78313;BME280;67568;47.438;21.408;2023-03-21T05:03:39;100445.72;;;6.72;76.78
78313;BME280;67568;47.438;21.408;2023-03-21T05:06:07;100444.88;;;6.61;76.47
78313;BME280;67568;47.438;21.408;2023-03-21T05:08:36;100452.00;;;6.62;77.78
78313;BME280;67568;47.438;21.408;2023-03-21T05:11:04;100455.34;;;6.69;76.30
78313;BME280;67568;47.438;21.408;2023-03-21T05:13:30;100458.94;;;6.75;77.38
78313;BME280;67568;47.438;21.408;2023-03-21T05:15:57;100456.44;;;6.73;77.41
78313;BME280;67568;47.438;21.408;2023-03-21T05:18:24;100454.25;;;6.75;76.46
78313;BME280;67568;47.438;21.408;2023-03-21T05:20:52;100455.34;;;6.85;75.76
78313;BME280;67568;47.438;21.408;2023-03-21T05:23:20;100452.88;;;6.78;76.99
78313;BME280;67568;47.438;21.408;2023-03-21T05:25:46;100458.06;;;6.59;77.08
78313;BME280;67568;47.438;21.408;2023-03-21T05:28:13;100456.44;;;6.68;77.10
78313;BME280;67568;47.438;21.408;2023-03-21T05:30:40;100451.75;;;6.74;76.58
78313;BME280;67568;47.438;21.408;2023-03-21T05:33:06;100453.41;;;6.65;76.12
78313;BME280;67568;47.438;21.408;2023-03-21T05:35:33;100463.03;;;6.62;76.96
78313;BME280;67568;47.438;21.408;2023-03-21T05:38:00;100469.38;;;6.68;76.58
78313;BME280;67568;47.438;21.408;2023-03-21T05:40:27;100459.19;;;6.58;76.73
78313;BME280;67568;47.438;21.408;2023-03-21T05:42:53;100464.63;;;6.43;77.71
78313;BME280;67568;47.438;21.408;2023-03-21T05:45:20;100463.03;;;6.67;77.12
78313;BME280;67568;47.438;21.408;2023-03-21T05:47:46;100462.75;;;6.74;76.22
78313;BME280;67568;47.438;21.408;2023-03-21T05:50:13;100460.84;;;6.69;76.94
78313;BME280;67568;47.438;21.408;2023-03-21T05:52:40;100461.94;;;6.73;76.37
78313;BME280;67568;47.438;21.408;2023-03-21T05:55:07;100458.91;;;6.85;75.57
78313;BME280;67568;47.438;21.408;2023-03-21T05:57:33;100469.66;;;6.66;76.25
78313;BME280;67568;47.438;21.408;2023-03-21T06:00:00;100460.03;;;6.64;77.90
78313;BME280;67568;47.438;21.408;2023-03-21T06:02:27;100466.34;;;6.59;77.57
78313;BME280;67568;47.438;21.408;2023-03-21T06:04:54;100458.09;;;6.74;76.48
78313;BME280;67568;47.438;21.408;2023-03-21T06:07:20;100461.16;;;6.83;77.15
78313;BME280;67568;47.438;21.408;2023-03-21T06:09:47;100466.91;;;7.02;75.98
78313;BME280;67568;47.438;21.408;2023-03-21T06:12:13;100466.63;;;6.93;77.63
78313;BME280;67568;47.438;21.408;2023-03-21T06:14:40;100457.50;;;7.49;75.63
78313;BME280;67568;47.438;21.408;2023-03-21T06:17:07;100460.78;;;7.61;76.20
78313;BME280;67568;47.438;21.408;2023-03-21T06:19:33;100468.41;;;7.85;75.24
78313;BME280;67568;47.438;21.408;2023-03-21T06:22:00;100456.81;;;8.53;72.38
78313;BME280;67568;47.438;21.408;2023-03-21T06:24:26;100467.44;;;9.67;71.10
78313;BME280;67568;47.438;21.408;2023-03-21T06:26:53;100478.88;;;9.85;69.26
78313;BME280;67568;47.438;21.408;2023-03-21T06:29:19;100469.41;;;9.62;69.25
78313;BME280;67568;47.438;21.408;2023-03-21T06:31:46;100487.06;;;9.71;69.09
78313;BME280;67568;47.438;21.408;2023-03-21T06:34:13;100487.69;;;9.87;68.16
78313;BME280;67568;47.438;21.408;2023-03-21T06:36:40;100486.50;;;9.93;69.33
78313;BME280;67568;47.438;21.408;2023-03-21T06:39:06;100487.38;;;9.64;69.04
78313;BME280;67568;47.438;21.408;2023-03-21T06:41:36;100486.16;;;9.76;69.40
78313;BME280;67568;47.438;21.408;2023-03-21T06:44:03;100490.53;;;9.82;69.36
78313;BME280;67568;47.438;21.408;2023-03-21T06:46:34;100488.63;;;10.25;68.08
78313;BME280;67568;47.438;21.408;2023-03-21T06:49:01;100483.88;;;10.50;66.97
78313;BME280;67568;47.438;21.408;2023-03-21T06:51:29;100483.56;;;11.08;66.95
78313;BME280;67568;47.438;21.408;2023-03-21T06:53:57;100483.09;;;11.53;63.56
78313;BME280;67568;47.438;21.408;2023-03-21T06:56:24;100473.38;;;11.97;62.47
78313;BME280;67568;47.438;21.408;2023-03-21T06:58:51;100483.00;;;11.71;61.91
78313;BME280;67568;47.438;21.408;2023-03-21T07:01:18;100483.16;;;11.94;62.55
78313;BME280;67568;47.438;21.408;2023-03-21T07:03:44;100473.22;;;11.60;62.55
78313;BME280;67568;47.438;21.408;2023-03-21T07:06:11;100485.41;;;11.92;62.59
78313;BME280;67568;47.438;21.408;2023-03-21T07:08:39;100492.41;;;12.31;61.37
78313;BME280;67568;47.438;21.408;2023-03-21T07:11:08;100480.13;;;12.46;61.21
78313;BME280;67568;47.438;21.408;2023-03-21T07:13:35;100488.81;;;13.03;61.04
78313;BME280;67568;47.438;21.408;2023-03-21T07:16:02;100494.84;;;13.19;58.84
78313;BME280;67568;47.438;21.408;2023-03-21T07:18:29;100481.03;;;13.14;59.38
78313;BME280;67568;47.438;21.408;2023-03-21T07:20:56;100485.81;;;12.77;58.30
78313;BME280;67568;47.438;21.408;2023-03-21T07:23:24;100487.38;;;12.69;59.19
78313;BME280;67568;47.438;21.408;2023-03-21T07:25:53;100486.19;;;12.62;59.13
78313;BME280;67568;47.438;21.408;2023-03-21T07:28:21;100486.16;;;12.75;59.25
78313;BME280;67568;47.438;21.408;2023-03-21T07:30:54;100498.41;;;12.97;59.95
78313;BME280;67568;47.438;21.408;2023-03-21T07:33:21;100492.72;;;12.79;59.42
78313;BME280;67568;47.438;21.408;2023-03-21T07:35:49;100493.03;;;12.78;59.38
78313;BME280;67568;47.438;21.408;2023-03-21T07:38:17;100496.06;;;12.68;60.18
78313;BME280;67568;47.438;21.408;2023-03-21T07:40:44;100492.94;;;12.69;60.49
78313;BME280;67568;47.438;21.408;2023-03-21T07:43:11;100493.63;;;13.11;60.53
78313;BME280;67568;47.438;21.408;2023-03-21T07:45:38;100486.63;;;12.77;61.79
78313;BME280;67568;47.438;21.408;2023-03-21T07:48:05;100494.44;;;13.12;59.08
78313;BME280;67568;47.438;21.408;2023-03-21T07:50:32;100503.88;;;13.69;58.49
78313;BME280;67568;47.438;21.408;2023-03-21T07:53:01;100491.16;;;13.86;58.36
78313;BME280;67568;47.438;21.408;2023-03-21T07:55:28;100493.63;;;13.87;57.27
78313;BME280;67568;47.438;21.408;2023-03-21T07:57:55;100500.38;;;14.44;56.98
78313;BME280;67568;47.438;21.408;2023-03-21T08:00:22;100500.78;;;14.85;54.64
78313;BME280;67568;47.438;21.408;2023-03-21T08:02:55;100504.06;;;14.88;54.35
78313;BME280;67568;47.438;21.408;2023-03-21T08:05:29;100515.09;;;15.10;53.89
78313;BME280;67568;47.438;21.408;2023-03-21T08:07:58;100514.56;;;15.08;53.90
78313;BME280;67568;47.438;21.408;2023-03-21T08:10:25;100520.59;;;15.62;53.91
78313;BME280;67568;47.438;21.408;2023-03-21T08:12:52;100521.03;;;15.90;52.91
78313;BME280;67568;47.438;21.408;2023-03-21T08:15:19;100516.09;;;15.96;52.74
78313;BME280;67568;47.438;21.408;2023-03-21T08:17:46;100508.97;;;16.07;52.39
78313;BME280;67568;47.438;21.408;2023-03-21T08:20:16;100510.66;;;16.38;51.79
78313;BME280;67568;47.438;21.408;2023-03-21T08:22:43;100516.22;;;16.76;51.43
78313;BME280;67568;47.438;21.408;2023-03-21T08:25:11;100518.94;;;17.06;49.72
78313;BME280;67568;47.438;21.408;2023-03-21T08:27:42;100516.19;;;17.39;49.54
78313;BME280;67568;47.438;21.408;2023-03-21T08:30:10;100522.44;;;18.03;48.04
78313;BME280;67568;47.438;21.408;2023-03-21T08:32:38;100512.50;;;18.66;45.59
78313;BME280;67568;47.438;21.408;2023-03-21T08:35:07;100514.91;;;19.61;44.37
78313;BME280;67568;47.438;21.408;2023-03-21T08:37:35;100524.69;;;20.11;42.88
78313;BME280;67568;47.438;21.408;2023-03-21T08:40:03;100517.97;;;20.63;41.27
78313;BME280;67568;47.438;21.408;2023-03-21T08:42:30;100511.22;;;21.03;40.05
78313;BME280;67568;47.438;21.408;2023-03-21T08:44:57;100516.44;;;21.21;40.24
78313;BME280;67568;47.438;21.408;2023-03-21T08:47:23;100510.91;;;20.89;40.34
78313;BME280;67568;47.438;21.408;2023-03-21T08:49:50;100523.44;;;20.25;39.06
78313;BME280;67568;47.438;21.408;2023-03-21T08:52:17;100518.91;;;20.04;40.71
78313;BME280;67568;47.438;21.408;2023-03-21T08:54:46;100517.66;;;19.17;40.81
78313;BME280;67568;47.438;21.408;2023-03-21T08:57:14;100521.94;;;19.39;41.62
78313;BME280;67568;47.438;21.408;2023-03-21T08:59:44;100523.06;;;20.10;40.10
78313;BME280;67568;47.438;21.408;2023-03-21T09:02:15;100517.16;;;20.98;37.69
78313;BME280;67568;47.438;21.408;2023-03-21T09:04:43;100510.72;;;21.56;36.39
78313;BME280;67568;47.438;21.408;2023-03-21T09:07:10;100512.78;;;22.01;35.81
78313;BME280;67568;47.438;21.408;2023-03-21T09:09:38;100507.16;;;22.51;34.50
78313;BME280;67568;47.438;21.408;2023-03-21T09:12:04;100512.69;;;23.61;33.77
78313;BME280;67568;47.438;21.408;2023-03-21T09:14:31;100503.53;;;23.38;33.16
78313;BME280;67568;47.438;21.408;2023-03-21T09:16:58;100504.34;;;23.38;32.93
78313;BME280;67568;47.438;21.408;2023-03-21T09:19:25;100502.94;;;23.55;33.55
78313;BME280;67568;47.438;21.408;2023-03-21T09:21:51;100512.72;;;23.65;31.80
78313;BME280;67568;47.438;21.408;2023-03-21T09:24:19;100514.03;;;24.56;30.74
78313;BME280;67568;47.438;21.408;2023-03-21T09:26:45;100501.59;;;25.55;27.79
78313;BME280;67568;47.438;21.408;2023-03-21T09:29:12;100502.88;;;25.79;27.96
78313;BME280;67568;47.438;21.408;2023-03-21T09:31:39;100496.44;;;26.00;29.09
78313;BME280;67568;47.438;21.408;2023-03-21T09:34:05;100493.97;;;26.49;27.44
78313;BME280;67568;47.438;21.408;2023-03-21T09:36:32;100492.34;;;26.69;28.12
78313;BME280;67568;47.438;21.408;2023-03-21T09:38:59;100499.66;;;27.76;25.79
78313;BME280;67568;47.438;21.408;2023-03-21T09:47:21;100487.75;;;27.22;25.84
78313;BME280;67568;47.438;21.408;2023-03-21T09:50:00;100488.06;;;28.12;25.33
78313;BME280;67568;47.438;21.408;2023-03-21T09:52:46;100489.09;;;28.78;24.16
78313;BME280;67568;47.438;21.408;2023-03-21T09:55:24;100484.56;;;29.79;22.46
78313;BME280;67568;47.438;21.408;2023-03-21T09:58:18;100490.50;;;31.66;21.30
78313;BME280;67568;47.438;21.408;2023-03-21T10:00:53;100479.25;;;30.76;21.19
78313;BME280;67568;47.438;21.408;2023-03-21T10:03:25;100475.50;;;30.12;22.04
78313;BME280;67568;47.438;21.408;2023-03-21T10:05:56;100491.84;;;32.14;20.63
78313;BME280;67568;47.438;21.408;2023-03-21T10:08:27;100478.53;;;29.74;21.54
78313;BME280;67568;47.438;21.408;2023-03-21T10:11:03;100466.00;;;27.61;24.60
78313;BME280;67568;47.438;21.408;2023-03-21T10:13:34;100479.19;;;27.99;24.48
78313;BME280;67568;47.438;21.408;2023-03-21T10:16:26;100474.06;;;28.29;23.83
78313;BME280;67568;47.438;21.408;2023-03-21T10:18:53;100472.59;;;28.58;23.77
78313;BME280;67568;47.438;21.408;2023-03-21T10:21:23;100467.47;;;29.49;22.63
78313;BME280;67568;47.438;21.408;2023-03-21T10:24:11;100468.19;;;29.22;22.82
78313;BME280;67568;47.438;21.408;2023-03-21T10:26:41;100471.66;;;29.37;23.13
78313;BME280;67568;47.438;21.408;2023-03-21T10:29:11;100470.00;;;30.68;21.10
78313;BME280;67568;47.438;21.408;2023-03-21T10:31:44;100468.25;;;30.54;21.24
78313;BME280;67568;47.438;21.408;2023-03-21T10:34:41;100466.31;;;31.67;19.58
78313;BME280;67568;47.438;21.408;2023-03-21T10:37:12;100465.88;;;32.05;19.18
78313;BME280;67568;47.438;21.408;2023-03-21T10:39:47;100453.03;;;29.87;20.34
78313;BME280;67568;47.438;21.408;2023-03-21T10:42:20;100456.78;;;28.88;21.69
78313;BME280;67568;47.438;21.408;2023-03-21T10:44:49;100460.88;;;28.87;22.87
78313;BME280;67568;47.438;21.408;2023-03-21T10:47:25;100458.94;;;30.70;21.36
78313;BME280;67568;47.438;21.408;2023-03-21T10:49:53;100457.00;;;30.43;21.52
78313;BME280;67568;47.438;21.408;2023-03-21T10:52:47;100462.75;;;29.66;22.08
78313;BME280;67568;47.438;21.408;2023-03-21T10:57:45;100449.75;;;27.57;23.64
78313;BME280;67568;47.438;21.408;2023-03-21T11:00:19;100454.72;;;29.53;21.52
78313;BME280;67568;47.438;21.408;2023-03-21T11:02:48;100460.72;;;29.63;21.22
78313;BME280;67568;47.438;21.408;2023-03-21T11:05:23;100447.88;;;29.47;21.14
78313;BME280;67568;47.438;21.408;2023-03-21T11:08:09;100439.84;;;27.10;24.00
78313;BME280;67568;47.438;21.408;2023-03-21T11:10:51;100447.09;;;27.92;23.27
78313;BME280;67568;47.438;21.408;2023-03-21T11:13:39;100429.00;;;26.76;24.61
78313;BME280;67568;47.438;21.408;2023-03-21T11:16:30;100423.22;;;27.01;24.70
78313;BME280;67568;47.438;21.408;2023-03-21T11:19:02;100421.56;;;27.00;24.65
78313;BME280;67568;47.438;21.408;2023-03-21T11:21:37;100421.50;;;27.14;24.40
78313;BME280;67568;47.438;21.408;2023-03-21T11:24:05;100426.13;;;27.64;23.16
78313;BME280;67568;47.438;21.408;2023-03-21T11:26:36;100418.13;;;28.00;23.29
78313;BME280;67568;47.438;21.408;2023-03-21T11:29:36;100413.00;;;27.85;23.17
78313;BME280;67568;47.438;21.408;2023-03-21T11:32:21;100405.91;;;27.48;22.70
78313;BME280;67568;47.438;21.408;2023-03-21T11:35:13;100402.63;;;26.58;23.81
78313;BME280;67568;47.438;21.408;2023-03-21T11:37:53;100399.84;;;25.75;25.60
78313;BME280;67568;47.438;21.408;2023-03-21T11:40:26;100394.56;;;24.47;26.97
78313;BME280;67568;47.438;21.408;2023-03-21T11:48:24;100385.56;;;23.79;28.41
78313;BME280;67568;47.438;21.408;2023-03-21T11:51:00;100386.75;;;23.74;28.31
78313;BME280;67568;47.438;21.408;2023-03-21T11:53:38;100381.59;;;23.43;29.61
78313;BME280;67568;47.438;21.408;2023-03-21T11:56:23;100370.16;;;23.28;29.37
78313;BME280;67568;47.438;21.408;2023-03-21T11:59:05;100379.34;;;23.22;29.60
78313;BME280;67568;47.438;21.408;2023-03-21T12:04:40;100365.81;;;22.71;29.29
78313;BME280;67568;47.438;21.408;2023-03-21T12:09:46;100365.16;;;22.20;30.17
78313;BME280;67568;47.438;21.408;2023-03-21T12:15:18;100355.28;;;22.11;29.95
78313;BME280;67568;47.438;21.408;2023-03-21T12:20:36;100350.72;;;22.02;31.05
78313;BME280;67568;47.438;21.408;2023-03-21T12:31:38;100339.25;;;21.19;32.06
78313;BME280;67568;47.438;21.408;2023-03-21T12:39:34;100325.44;;;20.33;33.90
78313;BME280;67568;47.438;21.408;2023-03-21T12:45:20;100320.28;;;20.74;34.87
78313;BME280;67568;47.438;21.408;2023-03-21T12:50:40;100305.22;;;20.27;34.07
78313;BME280;67568;47.438;21.408;2023-03-21T12:56:01;100292.22;;;20.03;34.27
78313;BME280;67568;47.438;21.408;2023-03-21T12:58:38;100304.31;;;20.04;34.57
78313;BME280;67568;47.438;21.408;2023-03-21T13:01:09;100289.09;;;19.89;34.55
78313;BME280;67568;47.438;21.408;2023-03-21T13:03:40;100293.28;;;19.79;33.85
78313;BME280;67568;47.438;21.408;2023-03-21T13:06:17;100283.56;;;19.92;35.32
78313;BME280;67568;47.438;21.408;2023-03-21T13:09:12;100278.00;;;19.45;34.99
78313;BME280;67568;47.438;21.408;2023-03-21T13:11:45;100274.00;;;19.62;35.38
78313;BME280;67568;47.438;21.408;2023-03-21T13:14:20;100278.78;;;19.77;35.14
78313;BME280;67568;47.438;21.408;2023-03-21T13:19:34;100277.16;;;19.76;35.51
78313;BME280;67568;47.438;21.408;2023-03-21T13:25:16;100268.81;;;19.64;35.81
78313;BME280;67568;47.438;21.408;2023-03-21T13:27:36;100275.72;;;19.35;35.48
78313;BME280;67568;47.438;21.408;2023-03-21T13:32:41;100266.75;;;19.45;36.81
78313;BME280;67568;47.438;21.408;2023-03-21T13:37:55;100268.44;;;19.49;35.59
78313;BME280;67568;47.438;21.408;2023-03-21T13:40:28;100263.19;;;19.64;34.63
78313;BME280;67568;47.438;21.408;2023-03-21T13:43:00;100256.06;;;19.35;36.21
78313;BME280;67568;47.438;21.408;2023-03-21T13:45:52;100261.13;;;19.45;35.81
78313;BME280;67568;47.438;21.408;2023-03-21T13:48:29;100261.28;;;19.52;35.88
78313;BME280;67568;47.438;21.408;2023-03-21T13:51:01;100255.41;;;19.57;35.86
78313;BME280;67568;47.438;21.408;2023-03-21T13:53:35;100253.78;;;19.56;36.49
78313;BME280;67568;47.438;21.408;2023-03-21T14:03:36;100245.78;;;19.74;35.87
78313;BME280;67568;47.438;21.408;2023-03-21T14:06:04;100245.69;;;19.70;36.56
78313;BME280;67568;47.438;21.408;2023-03-21T14:08:34;100243.69;;;19.55;36.31
78313;BME280;67568;47.438;21.408;2023-03-21T14:11:06;100240.47;;;19.53;36.86
78313;BME280;67568;47.438;21.408;2023-03-21T14:13:34;100238.31;;;19.30;36.90
78313;BME280;67568;47.438;21.408;2023-03-21T14:16:16;100246.28;;;19.28;36.86
78313;BME280;67568;47.438;21.408;2023-03-21T14:18:54;100248.91;;;19.05;37.13
78313;BME280;67568;47.438;21.408;2023-03-21T14:21:27;100244.66;;;18.96;37.47
78313;BME280;67568;47.438;21.408;2023-03-21T14:24:05;100251.06;;;18.80;37.55
78313;BME280;67568;47.438;21.408;2023-03-21T14:26:39;100249.19;;;18.84;37.80
78313;BME280;67568;47.438;21.408;2023-03-21T14:29:08;100240.03;;;18.87;38.32
78313;BME280;67568;47.438;21.408;2023-03-21T14:31:52;100247.81;;;18.94;38.17
78313;BME280;67568;47.438;21.408;2023-03-21T14:34:21;100250.09;;;19.04;37.49
78313;BME280;67568;47.438;21.408;2023-03-21T14:36:48;100235.53;;;18.99;37.11
78313;BME280;67568;47.438;21.408;2023-03-21T14:39:29;100246.47;;;19.04;37.82
78313;BME280;67568;47.438;21.408;2023-03-21T14:42:02;100246.19;;;19.09;37.22
78313;BME280;67568;47.438;21.408;2023-03-21T14:44:33;100240.59;;;18.93;36.83
78313;BME280;67568;47.438;21.408;2023-03-21T14:47:22;100245.03;;;18.66;37.84
78313;BME280;67568;47.438;21.408;2023-03-21T14:49:50;100238.66;;;18.37;38.63